createdAt,value
2022-12-24T00:04:34.787Z,6.97
2022-12-24T00:09:26.678Z,6.97
2022-12-24T00:14:18.395Z,6.98
2022-12-24T00:19:10.144Z,6.99
2022-12-24T00:24:04.272Z,7.00
2022-12-24T00:28:56.135Z,7.00
2022-12-24T00:33:48.362Z,7.01
2022-12-24T00:38:40.325Z,6.96
2022-12-24T00:43:32.594Z,6.91
2022-12-24T00:48:24.482Z,6.89
2022-12-24T00:53:17.220Z,6.85
2022-12-24T00:58:08.999Z,6.78
2022-12-24T01:03:00.713Z,6.75
2022-12-24T01:07:54.078Z,6.69
2022-12-24T01:12:46.757Z,6.65
2022-12-24T01:17:38.601Z,6.64
2022-12-24T01:22:30.367Z,6.62
2022-12-24T01:27:22.167Z,6.64
2022-12-24T01:32:13.827Z,6.67
2022-12-24T01:37:05.613Z,6.74
2022-12-24T01:42:15.986Z,6.80
2022-12-24T01:47:18.165Z,6.85
2022-12-24T01:52:16.168Z,6.83
2022-12-24T01:57:16.128Z,6.84
2022-12-24T02:02:08.087Z,6.85
2022-12-24T02:07:00.582Z,6.84
2022-12-24T02:11:52.582Z,6.79
2022-12-24T02:16:59.524Z,6.75
2022-12-24T02:21:58.605Z,6.75
2022-12-24T02:27:02.434Z,6.72
2022-12-24T02:32:21.278Z,6.67
2022-12-24T02:37:16.969Z,6.62
2022-12-24T02:42:12.109Z,6.53
2022-12-24T02:47:06.491Z,6.49
2022-12-24T02:51:58.260Z,6.46
2022-12-24T02:57:16.800Z,6.44
2022-12-24T03:02:31.395Z,6.41
2022-12-24T03:07:26.825Z,6.39
2022-12-24T03:12:35.956Z,6.37
2022-12-24T03:17:28.263Z,6.34
2022-12-24T03:22:22.426Z,6.28
2022-12-24T03:27:15.254Z,6.26
2022-12-24T03:32:07.486Z,6.23
2022-12-24T03:36:59.230Z,6.19
2022-12-24T03:41:50.972Z,6.15
2022-12-24T03:46:42.681Z,6.12
2022-12-24T03:51:34.468Z,6.04
2022-12-24T03:56:26.658Z,6.02
2022-12-24T04:01:18.594Z,5.98
2022-12-24T04:06:13.420Z,5.94
2022-12-24T04:11:09.866Z,5.90
2022-12-24T04:16:13.196Z,5.86
2022-12-24T04:21:05.725Z,5.82
2022-12-24T04:25:59.968Z,5.78
2022-12-24T04:30:51.634Z,5.73
2022-12-24T04:35:43.612Z,5.69
2022-12-24T04:40:35.870Z,5.67
2022-12-24T04:45:27.658Z,5.65
2022-12-24T04:50:19.458Z,5.66
2022-12-24T04:55:11.185Z,5.66
2022-12-24T05:00:05.708Z,5.68
2022-12-24T05:04:57.509Z,5.66
2022-12-24T05:09:49.217Z,5.66
2022-12-24T05:14:40.919Z,5.68
2022-12-24T05:19:32.855Z,5.70
2022-12-24T05:24:43.003Z,5.73
2022-12-24T05:29:34.711Z,5.74
2022-12-24T05:34:26.417Z,5.75
2022-12-24T05:39:18.837Z,5.74
2022-12-24T05:44:10.810Z,5.73
2022-12-24T05:49:02.673Z,5.73
2022-12-24T05:53:54.418Z,5.73
2022-12-24T05:58:46.432Z,5.73
2022-12-24T06:03:38.441Z,5.70
2022-12-24T06:08:31.859Z,5.66
2022-12-24T06:13:23.657Z,5.65
2022-12-24T06:18:15.307Z,5.63
2022-12-24T06:23:06.892Z,5.65
2022-12-24T06:27:58.523Z,5.65
2022-12-24T06:32:50.146Z,5.66
2022-12-24T06:37:41.866Z,5.66
2022-12-24T06:42:33.505Z,5.63
2022-12-24T06:47:25.571Z,5.63
2022-12-24T06:52:17.222Z,5.62
2022-12-24T06:57:09.039Z,5.61
2022-12-24T07:02:00.808Z,5.61
2022-12-24T07:06:52.641Z,5.62
2022-12-24T07:11:44.356Z,5.62
2022-12-24T07:16:36.225Z,5.64
2022-12-24T07:21:28.071Z,5.64
2022-12-24T07:26:19.883Z,5.64
2022-12-24T07:31:11.575Z,5.64
2022-12-24T07:36:07.186Z,5.63
2022-12-24T07:40:59.149Z,5.61
2022-12-24T07:45:51.044Z,5.60
2022-12-24T07:50:43.056Z,5.59
2022-12-24T07:55:36.100Z,5.55
2022-12-24T08:00:27.903Z,5.55
2022-12-24T08:05:19.703Z,5.52
2022-12-24T08:10:11.397Z,5.52
2022-12-24T08:15:03.160Z,5.50
2022-12-24T08:19:54.831Z,5.50
2022-12-24T08:24:46.525Z,5.50
2022-12-24T08:29:38.378Z,5.49
2022-12-24T08:34:30.122Z,5.48
2022-12-24T08:39:22.014Z,5.48
2022-12-24T08:44:13.752Z,5.47
2022-12-24T08:49:05.431Z,5.49
2022-12-24T08:53:57.053Z,5.52
2022-12-24T08:58:49.833Z,5.58
2022-12-24T09:03:42.133Z,5.64
2022-12-24T09:08:34.057Z,5.66
2022-12-24T09:13:25.893Z,5.67
2022-12-24T09:18:17.497Z,5.70
2022-12-24T09:23:09.242Z,5.71
2022-12-24T09:28:00.823Z,5.73
2022-12-24T09:32:52.556Z,5.73
2022-12-24T09:37:44.189Z,5.70
2022-12-24T09:42:51.947Z,5.76
2022-12-24T09:48:09.712Z,5.88
2022-12-24T09:53:07.919Z,6.07
2022-12-24T09:58:01.129Z,6.27
2022-12-24T10:02:53.382Z,6.51
2022-12-24T10:08:11.158Z,6.90
2022-12-24T10:13:05.610Z,7.30
2022-12-24T10:18:09.475Z,7.55
2022-12-24T10:23:23.567Z,7.75
2022-12-24T10:28:19.328Z,7.96
2022-12-24T10:33:29.581Z,8.16
2022-12-24T10:38:21.310Z,8.31
2022-12-24T10:43:22.740Z,8.31
2022-12-24T10:48:26.150Z,8.52
2022-12-24T10:53:52.759Z,8.78
2022-12-24T10:58:53.740Z,8.94
2022-12-24T11:03:45.555Z,8.96
2022-12-24T11:08:40.760Z,9.14
2022-12-24T11:13:38.362Z,9.32
2022-12-24T11:18:31.624Z,9.45
2022-12-24T11:23:23.954Z,9.50
2022-12-24T11:28:26.312Z,9.58
2022-12-24T11:33:20.566Z,9.70
2022-12-24T11:38:19.050Z,9.72
2022-12-24T11:43:17.196Z,9.62
2022-12-24T11:48:24.605Z,9.58
2022-12-24T11:53:25.556Z,9.48
2022-12-24T11:58:21.525Z,9.41
2022-12-24T12:03:31.812Z,9.34
2022-12-24T12:08:27.268Z,9.32
2022-12-24T12:13:25.965Z,9.29
2022-12-24T12:18:28.631Z,9.29
2022-12-24T12:23:30.735Z,9.20
2022-12-24T12:28:23.481Z,9.12
2022-12-24T12:33:27.105Z,9.05
2022-12-24T12:38:23.044Z,8.94
2022-12-24T12:43:27.421Z,8.76
2022-12-24T12:48:25.138Z,8.61
2022-12-24T12:53:28.044Z,8.52
2022-12-24T12:58:44.159Z,8.30
2022-12-24T13:03:41.694Z,8.10
2022-12-24T13:08:57.954Z,8.00
2022-12-24T13:14:17.505Z,8.00
2022-12-24T13:19:38.437Z,8.08
2022-12-24T13:24:31.857Z,8.11
2022-12-24T13:29:36.474Z,8.13
2022-12-24T13:34:37.738Z,8.14
2022-12-24T13:40:02.150Z,8.10
2022-12-24T13:45:31.884Z,8.11
2022-12-24T13:50:48.202Z,8.09
2022-12-24T13:55:53.009Z,8.04
2022-12-24T14:00:54.682Z,7.98
2022-12-24T14:05:58.634Z,7.93
2022-12-24T14:11:02.947Z,7.91
2022-12-24T14:15:57.728Z,7.91
2022-12-24T14:20:56.664Z,7.86
2022-12-24T14:25:49.239Z,7.84
2022-12-24T14:30:40.851Z,7.82
2022-12-24T14:35:38.373Z,7.76
2022-12-24T14:40:39.024Z,7.73
2022-12-24T14:45:59.508Z,7.70
2022-12-24T14:51:28.527Z,7.68
2022-12-24T14:56:22.681Z,7.66
2022-12-24T15:01:31.020Z,7.64
2022-12-24T15:06:22.884Z,7.59
2022-12-24T15:11:20.050Z,7.57
2022-12-24T15:16:15.834Z,7.57
2022-12-24T15:21:17.595Z,7.55
2022-12-24T15:26:16.402Z,7.55
2022-12-24T15:31:12.711Z,7.53
2022-12-24T15:36:06.676Z,7.50
2022-12-24T15:41:00.518Z,7.48
2022-12-24T15:45:53.864Z,7.45
2022-12-24T15:50:52.253Z,7.43
2022-12-24T15:55:59.552Z,7.41
2022-12-24T16:01:14.071Z,7.37
2022-12-24T16:06:07.922Z,7.32
2022-12-24T16:11:20.324Z,7.29
2022-12-24T16:16:14.742Z,7.26
2022-12-24T16:21:08.093Z,7.24
2022-12-24T16:25:59.738Z,7.22
2022-12-24T16:30:51.556Z,7.21
2022-12-24T16:35:44.094Z,7.21
2022-12-24T16:40:35.910Z,7.18
2022-12-24T16:45:30.883Z,7.17
2022-12-24T16:50:22.705Z,7.14
2022-12-24T16:55:15.002Z,7.14
2022-12-24T17:00:09.286Z,7.12
2022-12-24T17:05:00.927Z,7.11
2022-12-24T17:09:52.687Z,7.10
2022-12-24T17:14:45.407Z,7.10
2022-12-24T17:19:37.729Z,7.12
2022-12-24T17:24:30.268Z,7.13
2022-12-24T17:29:22.961Z,7.16
2022-12-24T17:34:14.691Z,7.16
2022-12-24T17:39:06.451Z,7.17
2022-12-24T17:43:59.340Z,7.20
2022-12-24T17:48:52.140Z,7.21
2022-12-24T17:53:44.133Z,7.23
2022-12-24T17:58:35.861Z,7.24
2022-12-24T18:03:28.779Z,7.29
2022-12-24T18:08:21.206Z,7.30
2022-12-24T18:13:19.132Z,7.33
2022-12-24T18:18:11.137Z,7.34
2022-12-24T18:23:03.455Z,7.37
2022-12-24T18:27:55.108Z,7.39
2022-12-24T18:32:50.175Z,7.43
2022-12-24T18:37:47.739Z,7.45
2022-12-24T18:42:42.296Z,7.50
2022-12-24T18:47:33.968Z,7.55
2022-12-24T18:52:27.846Z,7.57
2022-12-24T18:57:19.481Z,7.58
2022-12-24T19:02:11.414Z,7.60
2022-12-24T19:07:03.138Z,7.61
2022-12-24T19:11:54.835Z,7.62
2022-12-24T19:16:46.632Z,7.64
2022-12-24T19:21:38.491Z,7.67
2022-12-24T19:26:30.124Z,7.73
2022-12-24T19:31:24.960Z,7.74
2022-12-24T19:36:19.063Z,7.77
2022-12-24T19:41:12.793Z,7.80
2022-12-24T19:46:04.987Z,7.81
2022-12-24T19:51:01.625Z,7.82
2022-12-24T19:55:53.310Z,7.84
2022-12-24T20:00:45.036Z,7.83
2022-12-24T20:05:40.746Z,7.84
2022-12-24T20:10:32.577Z,7.84
2022-12-24T20:15:24.187Z,7.84
2022-12-24T20:20:15.930Z,7.84
2022-12-24T20:25:08.031Z,7.85
2022-12-24T20:29:59.714Z,7.82
2022-12-24T20:34:51.386Z,7.83
2022-12-24T20:39:44.608Z,7.80
2022-12-24T20:44:36.262Z,7.82
2022-12-24T20:49:27.961Z,7.82
2022-12-24T20:54:21.009Z,7.83
2022-12-24T20:59:12.700Z,7.82
2022-12-24T21:04:06.781Z,7.81
2022-12-24T21:08:58.748Z,7.78
2022-12-24T21:13:50.452Z,7.75
2022-12-24T21:18:42.281Z,7.71
2022-12-24T21:23:33.905Z,7.69
2022-12-24T21:28:25.725Z,7.69
2022-12-24T21:33:17.383Z,7.69
2022-12-24T21:38:09.065Z,7.69
2022-12-24T21:43:00.841Z,7.71
2022-12-24T21:47:52.576Z,7.71
2022-12-24T21:52:44.483Z,7.69
2022-12-24T21:57:54.307Z,7.67
2022-12-24T22:02:46.800Z,7.63
2022-12-24T22:07:57.228Z,7.62
2022-12-24T22:12:48.817Z,7.60
2022-12-24T22:17:40.701Z,7.59
2022-12-24T22:22:32.356Z,7.58
2022-12-24T22:27:24.158Z,7.59
2022-12-24T22:32:15.880Z,7.59
2022-12-24T22:37:07.786Z,7.57
2022-12-24T22:41:59.427Z,7.55
2022-12-24T22:46:51.169Z,7.52
2022-12-24T22:51:42.810Z,7.47
2022-12-24T22:56:40.655Z,7.46
2022-12-24T23:01:33.709Z,7.41
2022-12-24T23:06:25.421Z,7.36
2022-12-24T23:11:17.605Z,7.33
2022-12-24T23:16:09.390Z,7.29
2022-12-24T23:21:05.547Z,7.26
2022-12-24T23:26:06.360Z,7.23
2022-12-24T23:30:59.426Z,7.21
2022-12-24T23:35:53.747Z,7.19
2022-12-24T23:40:45.923Z,7.19
2022-12-24T23:45:38.485Z,7.15
2022-12-24T23:50:30.858Z,7.11
2022-12-24T23:55:22.556Z,7.09
